Aérodrome :
LOGIN :

S'inscrire | Disclaimer

   EN    FR    IT 

 










Légende :    VFR   VFR Marginal   IFR   IFR Intensif   IFR Très Intensif
Visi : 
Plafond : 
>= 8 km
>= 3000ft
5 à 8 km
1000 à 3000 ft
1500m à 5 km
500 à 1000 ft
800 à 1500m
200 à 500 ft
< 800m
< 200 ft
Symboles :   Orages  Brouillard  Fortes neiges  Fortes précipitations  Vent > 20 kt
SIGMETs :   Divers  Orages  Givrage  Turbulence  Onde Orograph.  Cendres Volcan.







- Altitude de l'aérodrome : 39 ft
- Code IATA : CTA


LICC - Catania Fontanarossa

DERNIER METAR :
  • 251120Z 06014KT 9999 FEW015 SCT035 BKN070 14/09 Q1002

METARs EXPIRÉS :
  • 251050Z 05012KT 9999 FEW020 SCT040 BKN070 13/09 Q1003
  • 251020Z 05010KT 9999 FEW015 SCT030 BKN060 12/08 Q1003
  • 250950Z 05011KT 9999 FEW015 SCT030 BKN060 12/09 Q1004
  • 250920Z 05011KT 9999 FEW015 SCT030 BKN070 12/10 Q1004
  • 250850Z 05010KT 9999 FEW015 SCT030 BKN070 12/10 Q1005

TAF TAF LICC
Valide du 25 à 12h jusqu'au 26 à 12h UTC


251100Z 2512/2612 06012KT 9999 SCT030
TEMPO 2512/2515 4000 RA
BECMG 2514/2516 26012KT
Pas de NOTAMs connus pour ce terrain.



MET'MAP, la Météo Aéronautique d'un coup d'oeil ! - Copyright ORBIFLY Décembre 2007 - Disclaimer

ORBIFLY MET'MAP TEAM :

Programmation & Développement : Alexandra Zaïnal
Conception & Développement : Baudouin d'Aumeries
Co-Programmation & Développement : Marc-Olivier Méhu
Soutien technique & logistique : Manuel Goepfert

Contact : metmap@orbifly.com




SOURCES & CREDITS :

   NOAA